Time;durP1;ratioP1;P1;durP2;ratioP2;P2;SDS_P1;SDS_P2;PMS_P1;PMS_P2;Temp;Humidity;BMP_temperature;BMP_pressure;BME280_temperature;BME280_humidity;BME280_pressure;Samples;Min_cycle;Max_cycle;Signal;HPM_P1;HPM_P2
2022/10/23 00:00:13;;;;;;;24.13;12.33;;;12.40;99.90;;;;;;10478500;28;20236;-82
2022/10/23 00:05:39;;;;;;;23.00;11.90;;;12.30;99.90;;;;;;10478520;28;20201;-82
2022/10/23 00:11:04;;;;;;;27.87;13.53;;;12.30;99.90;;;;;;10473922;28;20207;-80
2022/10/23 00:16:26;;;;;;;27.37;14.03;;;12.40;99.90;;;;;;10519664;28;20568;-82
2022/10/23 00:21:48;;;;;;;28.20;13.70;;;12.40;99.90;;;;;;10519678;28;20587;-81
2022/10/23 00:27:09;;;;;;;31.63;14.60;;;12.40;99.90;;;;;;10498159;28;20271;-81
2022/10/23 00:32:30;;;;;;;33.57;16.13;;;12.40;99.90;;;;;;10478054;28;20242;-83
2022/10/23 00:37:52;;;;;;;34.50;16.70;;;12.40;99.90;;;;;;10464337;28;20201;-84
2022/10/23 00:43:21;;;;;;;35.63;19.17;;;12.40;99.90;;;;;;10477836;28;20233;-81
2022/10/23 00:48:43;;;;;;;39.10;19.07;;;12.40;99.90;;;;;;10449756;28;20197;-84
2022/10/23 00:54:04;;;;;;;34.37;18.00;;;12.40;99.90;;;;;;10491919;28;20416;-83
2022/10/23 00:59:42;;;;;;;39.53;19.23;;;12.40;99.90;;;;;;10462233;28;20218;-81
2022/10/23 01:05:04;;;;;;;35.33;17.73;;;12.50;99.90;;;;;;10477214;28;20207;-81
2022/10/23 01:10:44;;;;;;;28.40;16.30;;;12.50;99.90;;;;;;10496478;28;20188;-80
2022/10/23 01:16:15;;;;;;;26.73;14.77;;;12.50;99.90;;;;;;10478737;28;20396;-81
2022/10/23 01:21:49;;;;;;;24.20;14.83;;;12.50;99.90;;;;;;10503962;28;20234;-81
2022/10/23 01:27:24;;;;;;;34.87;18.27;;;12.50;99.90;;;;;;10491964;28;20268;-85
2022/10/23 01:33:05;;;;;;;25.50;15.13;;;12.50;99.90;;;;;;10476320;28;20286;-80
2022/10/23 01:38:51;;;;;;;21.27;13.40;;;12.50;99.90;;;;;;10490657;28;20233;-80
2022/10/23 01:44:23;;;;;;;21.83;13.57;;;12.50;99.90;;;;;;10476901;28;20231;-80
2022/10/23 01:49:47;;;;;;;23.80;13.47;;;12.50;99.90;;;;;;10495697;28;20237;-81
2022/10/23 01:55:11;;;;;;;17.83;12.07;;;12.50;99.90;;;;;;10490306;28;20387;-80
2022/10/23 02:00:33;;;;;;;17.27;11.17;;;12.50;99.90;;;;;;10481052;28;20279;-80
2022/10/23 02:05:54;;;;;;;13.37;9.30;;;12.40;99.90;;;;;;10490048;28;20189;-81
2022/10/23 02:11:20;;;;;;;8.27;7.17;;;12.40;99.90;;;;;;10480514;28;20208;-80
2022/10/23 02:16:48;;;;;;;10.07;7.80;;;12.40;99.90;;;;;;10510823;28;20197;-86
2022/10/23 02:22:20;;;;;;;14.87;10.00;;;12.50;99.90;;;;;;10541849;28;20341;-86
2022/10/23 02:27:43;;;;;;;10.90;7.70;;;12.50;99.90;;;;;;10498719;28;20239;-85
2022/10/23 02:33:07;;;;;;;10.77;8.17;;;12.40;99.90;;;;;;10481967;28;20244;-80
2022/10/23 02:38:32;;;;;;;10.17;7.67;;;12.50;99.90;;;;;;10482130;28;20224;-81
2022/10/23 02:44:21;;;;;;;9.53;7.63;;;12.40;99.90;;;;;;10482663;28;20245;-81
2022/10/23 02:49:54;;;;;;;10.17;7.20;;;12.40;99.90;;;;;;10481817;28;20228;-80
2022/10/23 02:55:35;;;;;;;13.60;8.53;;;12.40;99.90;;;;;;10481353;28;20202;-81
2022/10/23 03:01:05;;;;;;;16.10;11.33;;;12.40;99.90;;;;;;10481625;28;20228;-80
2022/10/23 03:06:26;;;;;;;16.57;11.00;;;12.50;99.90;;;;;;10510062;28;20201;-80
2022/10/23 03:11:49;;;;;;;12.97;9.87;;;12.40;99.90;;;;;;10500032;28;20208;-80
2022/10/23 03:17:11;;;;;;;18.50;12.03;;;12.50;99.90;;;;;;10513171;28;20497;-80
2022/10/23 03:22:32;;;;;;;22.93;14.37;;;12.50;99.90;;;;;;10538249;28;20223;-80
2022/10/23 03:27:54;;;;;;;24.60;15.83;;;12.50;99.90;;;;;;10479815;28;20198;-81
2022/10/23 03:33:15;;;;;;;23.90;16.73;;;12.50;99.90;;;;;;10494523;28;20247;-87
2022/10/23 03:38:37;;;;;;;26.40;17.10;;;12.50;99.90;;;;;;10480549;28;20202;-86
2022/10/23 03:43:58;;;;;;;31.10;18.97;;;12.50;99.90;;;;;;10480586;28;20406;-83
2022/10/23 03:49:19;;;;;;;30.20;19.10;;;12.50;99.90;;;;;;10494276;28;20205;-81
2022/10/23 03:54:41;;;;;;;26.67;18.27;;;12.60;99.90;;;;;;10479558;28;20549;-87
2022/10/23 04:00:05;;;;;;;34.30;18.10;;;12.60;99.90;;;;;;10479107;28;20366;-80
2022/10/23 04:05:36;;;;;;;35.40;21.90;;;12.60;99.90;;;;;;10478520;28;20212;-80
2022/10/23 04:10:58;;;;;;;37.97;20.77;;;12.60;99.90;;;;;;10516559;28;20255;-85
2022/10/23 04:16:36;;;;;;;38.10;21.40;;;12.60;99.90;;;;;;10508322;28;20269;-86
2022/10/23 04:21:58;;;;;;;42.30;23.30;;;12.60;99.90;;;;;;10491835;28;20299;-85
2022/10/23 04:27:19;;;;;;;45.70;24.17;;;12.60;99.90;;;;;;10483828;28;20198;-81
2022/10/23 04:32:41;;;;;;;36.87;21.23;;;12.60;99.90;;;;;;10477533;28;20246;-80
2022/10/23 04:38:02;;;;;;;36.93;22.17;;;12.70;99.90;;;;;;10477911;28;20204;-83
2022/10/23 04:43:24;;;;;;;35.27;20.47;;;12.70;99.90;;;;;;10463875;28;20244;-80
2022/10/23 04:48:46;;;;;;;39.73;21.23;;;12.70;99.90;;;;;;10477781;28;20201;-81
2022/10/23 04:54:20;;;;;;;42.87;22.97;;;12.70;99.90;;;;;;10478049;28;20283;-80
2022/10/23 05:00:09;;;;;;;37.57;21.07;;;12.70;99.90;;;;;;10481374;28;20190;-82
2022/10/23 05:05:41;;;;;;;38.20;20.83;;;12.70;99.90;;;;;;10463618;28;20199;-88
2022/10/23 05:11:31;;;;;;;35.60;22.00;;;12.70;99.90;;;;;;10487870;28;20387;-88
2022/10/23 05:17:07;;;;;;;36.33;21.70;;;12.70;99.90;;;;;;10490964;28;20214;-80
2022/10/23 05:22:33;;;;;;;41.93;22.03;;;12.70;99.90;;;;;;10535172;28;20232;-82
2022/10/23 05:27:58;;;;;;;39.80;22.77;;;12.70;99.90;;;;;;10462424;28;20197;-80
2022/10/23 05:33:19;;;;;;;37.50;20.27;;;12.70;99.90;;;;;;10491115;28;20237;-81
2022/10/23 05:38:42;;;;;;;43.87;22.63;;;12.70;99.90;;;;;;10476881;28;20500;-83
2022/10/23 05:44:08;;;;;;;45.73;22.83;;;12.70;99.90;;;;;;10451958;28;20228;-82
2022/10/23 05:50:02;;;;;;;39.03;23.20;;;12.70;99.90;;;;;;10333318;28;20252;-81
2022/10/23 05:55:42;;;;;;;32.63;20.67;;;12.70;99.90;;;;;;10347492;28;20199;-82
2022/10/23 06:01:29;;;;;;;36.30;22.07;;;12.70;99.90;;;;;;10347947;28;20296;-81
2022/10/23 06:06:55;;;;;;;37.87;21.93;;;12.70;99.90;;;;;;10344470;28;20213;-81
2022/10/23 06:12:19;;;;;;;40.37;23.43;;;12.70;99.90;;;;;;10327479;28;20215;-82
2022/10/23 06:17:42;;;;;;;32.93;19.40;;;12.70;99.90;;;;;;10343915;28;20210;-81
2022/10/23 06:23:04;;;;;;;34.37;22.60;;;12.70;99.90;;;;;;10380835;28;20238;-81
2022/10/23 06:28:51;;;;;;;35.23;22.70;;;12.70;99.90;;;;;;10469805;28;20528;-80
2022/10/23 06:34:13;;;;;;;34.13;21.97;;;12.70;99.90;;;;;;10448885;28;20238;-82
2022/10/23 06:39:35;;;;;;;28.63;20.07;;;12.80;99.90;;;;;;10441201;28;20253;-83
2022/10/23 06:45:03;;;;;;;37.90;22.53;;;12.80;99.90;;;;;;10456126;28;20233;-80
2022/10/23 06:50:46;;;;;;;34.07;21.70;;;12.90;99.90;;;;;;10350983;28;20206;-85
2022/10/23 06:56:12;;;;;;;35.57;20.87;;;12.80;99.90;;;;;;10338349;28;20538;-80
2022/10/23 07:01:34;;;;;;;32.57;21.70;;;12.90;99.90;;;;;;10355688;28;20250;-83
2022/10/23 07:06:57;;;;;;;39.47;25.80;;;12.70;99.90;;;;;;10339396;28;20234;-81
2022/10/23 07:12:28;;;;;;;34.00;22.20;;;12.70;99.90;;;;;;10358300;28;20363;-81
2022/10/23 07:18:18;;;;;;;34.00;22.07;;;12.70;99.90;;;;;;10429744;28;20524;-82
2022/10/23 07:24:05;;;;;;;30.03;20.63;;;12.80;99.90;;;;;;10313709;28;20263;-80
2022/10/23 07:29:31;;;;;;;27.60;19.53;;;12.80;99.90;;;;;;10394983;28;20540;-81
2022/10/23 07:34:54;;;;;;;29.53;19.50;;;12.80;99.90;;;;;;10432191;28;20463;-80
2022/10/23 07:40:21;;;;;;;26.53;18.07;;;12.90;99.90;;;;;;10420928;28;20215;-86
2022/10/23 07:45:47;;;;;;;25.63;17.33;;;12.90;99.90;;;;;;10436469;28;20286;-80
2022/10/23 07:51:16;;;;;;;24.37;16.87;;;12.90;99.90;;;;;;10436295;28;20246;-81
2022/10/23 07:56:41;;;;;;;20.93;15.33;;;12.90;99.90;;;;;;10437571;28;20409;-80
2022/10/23 08:02:24;;;;;;;22.30;15.77;;;12.90;99.90;;;;;;10535360;28;20232;-80
2022/10/23 08:07:46;;;;;;;21.20;15.80;;;12.90;99.90;;;;;;10529240;28;20194;-85
2022/10/23 08:13:11;;;;;;;17.67;12.57;;;13.00;99.90;;;;;;10505810;28;20266;-81
2022/10/23 08:18:51;;;;;;;22.67;13.40;;;13.00;99.90;;;;;;10506382;28;20397;-82
2022/10/23 08:24:12;;;;;;;25.30;16.33;;;13.00;99.90;;;;;;10534666;28;20221;-80
2022/10/23 08:29:36;;;;;;;18.73;13.23;;;13.00;99.90;;;;;;10505851;28;20201;-80
2022/10/23 08:34:57;;;;;;;20.90;13.60;;;13.40;99.90;;;;;;10505358;28;20247;-80
2022/10/23 08:40:23;;;;;;;20.30;13.90;;;13.10;99.90;;;;;;10505471;28;20452;-78
2022/10/23 08:46:10;;;;;;;16.30;11.23;;;13.00;99.90;;;;;;10506046;28;20394;-81
2022/10/23 08:51:59;;;;;;;11.93;10.23;;;13.10;99.90;;;;;;10520221;28;20231;-80
2022/10/23 08:57:22;;;;;;;15.10;10.23;;;13.10;99.90;;;;;;10519897;28;20373;-85
2022/10/23 09:02:45;;;;;;;12.73;8.47;;;13.10;99.90;;;;;;10507031;28;20415;-80
2022/10/23 09:08:32;;;;;;;9.83;7.20;;;13.10;99.90;;;;;;10519371;28;20225;-86
2022/10/23 09:14:15;;;;;;;9.33;7.17;;;13.10;99.90;;;;;;10505157;28;20212;-80
2022/10/23 09:19:36;;;;;;;11.80;5.90;;;13.20;99.90;;;;;;10509204;28;20207;-80
2022/10/23 09:24:57;;;;;;;10.57;5.77;;;13.30;99.90;;;;;;10512786;28;20223;-82
2022/10/23 09:30:30;;;;;;;10.63;5.33;;;13.50;99.90;;;;;;10513015;28;20194;-81
2022/10/23 09:35:54;;;;;;;7.73;5.20;;;;;;;;;;10513599;28;20215;-87
2022/10/23 09:41:24;;;;;;;6.13;4.27;;;;;;;;;;10513768;28;20547;-82
2022/10/23 09:46:47;;;;;;;5.60;3.90;;;;;;;;;;10526568;28;20202;-85
2022/10/23 09:52:11;;;;;;;4.40;3.30;;;14.30;99.90;;;;;;10511844;28;20227;-83
2022/10/23 09:57:40;;;;;;;8.03;2.90;;;14.20;99.90;;;;;;10511887;28;20248;-81
2022/10/23 10:03:06;;;;;;;4.97;2.70;;;14.10;99.90;;;;;;10511599;28;20230;-85
2022/10/23 10:08:43;;;;;;;4.33;2.37;;;14.00;99.90;;;;;;10540036;28;20200;-86
2022/10/23 10:14:32;;;;;;;6.77;2.70;;;13.90;99.90;;;;;;10510462;28;20209;-80
2022/10/23 10:20:21;;;;;;;3.60;2.10;;;13.80;99.90;;;;;;10511471;28;20220;-80
2022/10/23 10:25:57;;;;;;;6.83;2.60;;;13.70;99.90;;;;;;10525000;28;20188;-83
2022/10/23 10:31:33;;;;;;;4.30;2.33;;;13.80;99.90;;;;;;10523891;28;20281;-81
2022/10/23 10:37:12;;;;;;;4.50;2.40;;;14.10;99.90;;;;;;10538310;28;20269;-80
2022/10/23 10:42:34;;;;;;;4.33;2.43;;;;;;;;;;10525377;28;20222;-80
2022/10/23 10:47:58;;;;;;;7.60;2.47;;;;;;;;;;10523483;28;20206;-85
2022/10/23 10:53:25;;;;;;;2.33;1.50;;;;;;;;;;10523226;28;20214;-82
2022/10/23 10:58:49;;;;;;;2.58;1.88;;;;;;;;;;10523637;28;20213;-81
2022/10/23 11:04:13;;;;;;;1.67;1.45;;;;;;;;;;10524433;28;20264;-81
2022/10/23 11:09:35;;;;;;;2.05;1.30;;;;;;;;;;10523049;28;20199;-88
2022/10/23 11:14:56;;;;;;;2.57;1.60;;;;;;;;;;10505852;28;20210;-88
2022/10/23 11:20:30;;;;;;;3.73;1.90;;;;;;;;;;10522813;28;20242;-86
2022/10/23 11:26:20;;;;;;;2.97;1.67;;;;;;;;;;10511708;28;20195;-80
2022/10/23 11:32:00;;;;;;;4.13;1.60;;;;;;;;;;10489421;28;20258;-87
2022/10/23 11:37:23;;;;;;;3.70;1.47;;;;;;;;;;10480027;28;20200;-83
2022/10/23 11:42:46;;;;;;;1.63;1.50;;;;;;;;;;10465957;28;20233;-81
2022/10/23 11:48:14;;;;;;;2.43;1.40;;;;;;;;;;10452038;28;20393;-85
2022/10/23 11:53:35;;;;;;;5.15;1.65;;;;;;;;;;10451533;28;20460;-87
2022/10/23 11:58:58;;;;;;;2.70;1.10;;;;;;;;;;10465531;28;20234;-81
2022/10/23 12:04:45;;;;;;;4.65;1.60;;;17.10;99.90;;;;;;10450706;28;20227;-81
2022/10/23 12:10:27;;;;;;;2.25;1.23;;;17.20;99.90;;;;;;10495766;28;20189;-80
2022/10/23 12:15:53;;;;;;;3.08;1.25;;;;;;;;;;10492201;28;20211;-80
2022/10/23 12:21:16;;;;;;;3.40;1.48;;;;;;;;;;10536444;28;20209;-82
2022/10/23 12:26:41;;;;;;;2.13;1.40;;;;;;;;;;10503008;28;20277;-86
2022/10/23 12:32:05;;;;;;;12.43;1.95;;;;;;;;;;10464258;28;20382;-80
2022/10/23 12:37:27;;;;;;;2.30;1.67;;;;;;;;;;10479093;28;20198;-81
2022/10/23 12:42:53;;;;;;;4.13;2.05;;;;;;;;;;10478392;28;20229;-81
2022/10/23 12:48:20;;;;;;;7.55;2.53;;;;;;;;;;10484252;28;20194;-81
2022/10/23 12:53:41;;;;;;;5.32;2.47;;;;;;;;;;10473855;28;20443;-81
2022/10/23 12:59:04;;;;;;;5.32;2.67;;;;;;;;;;10463645;28;20200;-81
2022/10/23 13:04:30;;;;;;;3.38;1.60;;;;;;;;;;10476858;28;20231;-80
2022/10/23 13:09:52;;;;;;;3.45;2.20;;;;;;;;;;10463344;28;20203;-80
2022/10/23 13:15:24;;;;;;;3.80;1.55;;;;;;;;;;10531012;28;20235;-81
2022/10/23 13:20:51;;;;;;;3.95;1.90;;;;;;;;;;10518341;28;20187;-81
2022/10/23 13:26:32;;;;;;;2.38;1.45;;;;;;;;;;10504851;28;20200;-81
2022/10/23 13:31:54;;;;;;;5.70;2.70;;;;;;;;;;10476476;28;20293;-81
2022/10/23 13:37:24;;;;;;;7.60;3.42;;;;;;;;;;10462858;28;20192;-81
2022/10/23 13:42:48;;;;;;;7.47;3.05;;;;;;;;;;10476005;28;20250;-81
2022/10/23 13:48:14;;;;;;;2.97;1.65;;;;;;;;;;10462164;28;20203;-81
2022/10/23 13:53:35;;;;;;;4.50;2.00;;;;;;;;;;10462376;28;20214;-82
2022/10/23 13:58:56;;;;;;;2.15;1.30;;;;;;;;;;10462239;28;20197;-82
2022/10/23 14:04:18;;;;;;;3.33;1.63;;;;;;;;;;10449279;28;20234;-82
2022/10/23 14:09:40;;;;;;;2.63;1.60;;;;;;;;;;10455764;28;20244;-82
2022/10/23 14:15:01;;;;;;;2.70;1.70;;;;;;;;;;10475835;28;20214;-82
2022/10/23 14:20:22;;;;;;;5.60;2.05;;;;;;;;;;10524730;28;20199;-86
2022/10/23 14:25:44;;;;;;;2.55;1.75;;;;;;;;;;10521321;28;20223;-84
2022/10/23 14:31:11;;;;;;;4.18;2.10;;;15.00;99.90;;;;;;10482652;28;20225;-81
2022/10/23 14:36:32;;;;;;;3.07;2.00;;;14.90;99.90;;;;;;10482744;28;20261;-86
2022/10/23 14:41:53;;;;;;;3.97;2.63;;;14.80;99.90;;;;;;10482741;28;20222;-85
2022/10/23 14:47:17;;;;;;;4.57;3.03;;;14.70;99.90;;;;;;10482089;28;20260;-82
2022/10/23 14:52:39;;;;;;;6.57;4.25;;;14.60;99.90;;;;;;10481909;28;20233;-82
2022/10/23 14:58:00;;;;;;;5.35;3.95;;;;;;;;;;10481298;28;20559;-85
2022/10/23 15:03:22;;;;;;;5.43;4.10;;;;;;;;;;10467607;28;20304;-82
2022/10/23 15:08:44;;;;;;;5.30;3.60;;;;;;;;;;10481401;28;20518;-81
2022/10/23 15:14:05;;;;;;;5.60;3.78;;;;;;;;;;10502255;28;20210;-80
2022/10/23 15:19:26;;;;;;;5.32;3.40;;;14.00;99.90;;;;;;10521858;28;20209;-81
2022/10/23 15:24:47;;;;;;;5.60;2.80;;;;;;;;;;10508498;28;20275;-82
2022/10/23 15:30:10;;;;;;;3.87;2.93;;;13.70;99.90;;;;;;10507755;28;20426;-83
2022/10/23 15:35:31;;;;;;;4.47;3.37;;;13.60;99.90;;;;;;10521800;28;20417;-83
2022/10/23 15:41:02;;;;;;;7.00;3.20;;;13.40;99.90;;;;;;10507720;28;20200;-82
2022/10/23 15:46:24;;;;;;;7.57;4.47;;;13.10;99.90;;;;;;10507157;28;20232;-81
2022/10/23 15:51:45;;;;;;;7.10;4.80;;;12.90;99.90;;;;;;10507178;28;20226;-82
2022/10/23 15:57:06;;;;;;;13.03;8.63;;;12.80;99.90;;;;;;10506787;28;20200;-82
2022/10/23 16:02:27;;;;;;;26.43;15.97;;;12.80;99.90;;;;;;10506565;28;20229;-81
2022/10/23 16:07:48;;;;;;;42.57;24.90;;;12.60;99.90;;;;;;10520541;28;20201;-82
2022/10/23 16:13:09;;;;;;;47.60;28.17;;;12.50;99.90;;;;;;10519951;28;20206;-82
2022/10/23 16:18:31;;;;;;;43.80;27.37;;;12.50;99.90;;;;;;10505527;28;20198;-81
2022/10/23 16:23:53;;;;;;;45.43;28.47;;;;;;;;;;10519945;28;20229;-81
2022/10/23 16:29:14;;;;;;;47.03;27.57;;;;;;;;;;10535468;28;20199;-81
2022/10/23 16:34:35;;;;;;;45.57;26.77;;;12.10;99.90;;;;;;10519119;28;20311;-82
2022/10/23 16:39:57;;;;;;;43.83;27.33;;;11.90;99.90;;;;;;10519250;28;20198;-80
2022/10/23 16:45:37;;;;;;;55.03;32.53;;;12.00;99.90;;;;;;10536048;28;20437;-83
2022/10/23 16:50:59;;;;;;;53.50;31.47;;;11.70;99.90;;;;;;10519601;28;20390;-81
2022/10/23 16:56:23;;;;;;;51.50;29.53;;;11.50;99.90;;;;;;10518784;28;20295;-81
2022/10/23 17:01:44;;;;;;;49.50;30.30;;;11.40;99.90;;;;;;10504810;28;20200;-84
2022/10/23 17:07:06;;;;;;;48.83;31.03;;;11.30;99.90;;;;;;10535600;28;20197;-81
2022/10/23 17:12:27;;;;;;;46.67;29.20;;;;;;;;;;10532496;28;20198;-81
2022/10/23 17:17:48;;;;;;;54.80;32.57;;;11.20;99.90;;;;;;10504233;28;20212;-85
2022/10/23 17:23:09;;;;;;;62.27;34.80;;;11.10;99.90;;;;;;10490230;28;20272;-85
2022/10/23 17:28:32;;;;;;;57.67;37.90;;;;;;;;;;10504948;28;20195;-80
2022/10/23 17:33:57;;;;;;;60.83;38.73;;;11.00;99.90;;;;;;10507673;28;20236;-80
2022/10/23 17:39:22;;;;;;;61.50;40.70;;;10.90;99.90;;;;;;10523749;28;20391;-82
2022/10/23 17:44:43;;;;;;;58.97;37.77;;;10.90;99.90;;;;;;10542980;28;20230;-81
2022/10/23 17:50:08;;;;;;;58.67;35.47;;;10.80;99.90;;;;;;10511880;28;20276;-80
2022/10/23 17:55:29;;;;;;;85.80;45.33;;;;;;;;;;10539958;28;20199;-81
2022/10/23 18:00:51;;;;;;;87.67;46.77;;;10.60;99.90;;;;;;10525430;28;20190;-81
2022/10/23 18:06:24;;;;;;;84.20;43.60;;;10.60;99.90;;;;;;10496877;28;20522;-81
2022/10/23 18:11:48;;;;;;;69.87;38.47;;;10.60;99.90;;;;;;10541237;28;20199;-81
2022/10/23 18:17:09;;;;;;;74.40;42.23;;;10.60;99.90;;;;;;10510462;28;20496;-82
2022/10/23 18:22:32;;;;;;;103.10;50.90;;;10.60;99.90;;;;;;10510397;28;20213;-81
2022/10/23 18:27:53;;;;;;;87.07;53.67;;;10.60;99.90;;;;;;10538614;28;20271;-81
2022/10/23 18:33:15;;;;;;;93.57;53.93;;;10.50;99.90;;;;;;10495876;28;20532;-82
2022/10/23 18:38:36;;;;;;;94.60;55.50;;;10.50;99.90;;;;;;10523845;28;20550;-81
2022/10/23 18:43:57;;;;;;;96.57;55.90;;;10.50;99.90;;;;;;10523879;28;20238;-81
2022/10/23 18:49:19;;;;;;;97.90;52.80;;;10.50;99.90;;;;;;10524133;28;20202;-84
2022/10/23 18:54:40;;;;;;;90.63;52.43;;;10.30;99.90;;;;;;10508816;28;20205;-85
2022/10/23 19:00:04;;;;;;;91.23;54.10;;;10.30;99.90;;;;;;10523483;28;20197;-81
2022/10/23 19:05:25;;;;;;;98.00;57.83;;;10.30;99.90;;;;;;10522826;28;20305;-81
2022/10/23 19:10:47;;;;;;;99.73;56.87;;;10.30;99.90;;;;;;10518794;28;20365;-81
2022/10/23 19:16:14;;;;;;;106.37;58.17;;;10.20;99.90;;;;;;10491789;28;20207;-84
2022/10/23 19:21:37;;;;;;;103.60;57.53;;;10.10;99.90;;;;;;10480736;28;20233;-81
2022/10/23 19:27:00;;;;;;;100.27;57.77;;;;;;;;;;10500442;28;20238;-84
2022/10/23 19:32:22;;;;;;;99.23;57.30;;;10.10;99.90;;;;;;10493820;28;20313;-81
2022/10/23 19:37:43;;;;;;;97.80;56.07;;;10.00;99.90;;;;;;10536085;28;20203;-82
2022/10/23 19:43:04;;;;;;;94.67;54.57;;;9.90;99.90;;;;;;10493568;28;20229;-80
2022/10/23 19:48:26;;;;;;;83.97;48.93;;;9.90;99.90;;;;;;10526454;28;20249;-83
2022/10/23 19:53:48;;;;;;;76.97;44.63;;;9.80;99.90;;;;;;10507049;28;20534;-81
2022/10/23 19:59:11;;;;;;;71.43;43.67;;;9.80;99.90;;;;;;10492729;28;20523;-84
2022/10/23 20:04:33;;;;;;;75.03;45.07;;;9.80;99.90;;;;;;10506265;28;20279;-85
2022/10/23 20:09:54;;;;;;;69.83;42.03;;;9.80;99.90;;;;;;10506285;28;20208;-85
2022/10/23 20:15:16;;;;;;;75.73;41.93;;;9.70;99.90;;;;;;10501523;28;20207;-80
2022/10/23 20:20:41;;;;;;;73.03;42.30;;;9.70;99.90;;;;;;10534481;28;20223;-81
2022/10/23 20:26:07;;;;;;;76.13;44.33;;;9.60;99.90;;;;;;10520172;28;20231;-81
2022/10/23 20:31:28;;;;;;;76.60;45.07;;;9.50;99.90;;;;;;10520370;28;20260;-82
2022/10/23 20:36:51;;;;;;;102.63;50.33;;;9.50;99.90;;;;;;10506498;28;20196;-81
2022/10/23 20:42:12;;;;;;;123.73;56.37;;;9.50;99.90;;;;;;10534057;28;20224;-84
2022/10/23 20:47:33;;;;;;;121.57;54.73;;;9.50;99.90;;;;;;10520850;28;20213;-82
2022/10/23 20:52:54;;;;;;;129.33;56.20;;;9.50;99.90;;;;;;10519878;28;20237;-81
2022/10/23 20:58:16;;;;;;;135.30;57.77;;;9.60;99.90;;;;;;10521233;28;20192;-81
2022/10/23 21:03:37;;;;;;;131.00;56.40;;;9.60;99.90;;;;;;10505849;28;20235;-83
2022/10/23 21:09:02;;;;;;;105.10;52.37;;;9.60;99.90;;;;;;10506110;28;20201;-81
2022/10/23 21:14:23;;;;;;;90.73;49.23;;;9.60;99.90;;;;;;10520802;28;20254;-82
2022/10/23 21:19:44;;;;;;;89.10;47.00;;;9.60;99.90;;;;;;10544430;28;20416;-81
2022/10/23 21:25:06;;;;;;;97.13;54.80;;;9.60;99.90;;;;;;10495577;28;20244;-81
2022/10/23 21:30:27;;;;;;;92.57;46.30;;;9.70;99.90;;;;;;10485753;28;20192;-81
2022/10/23 21:35:49;;;;;;;82.80;43.60;;;9.80;99.90;;;;;;10486474;28;20426;-82
2022/10/23 21:41:18;;;;;;;84.33;40.07;;;9.80;99.90;;;;;;10485517;28;20213;-81
2022/10/23 21:46:40;;;;;;;82.10;38.83;;;9.80;99.90;;;;;;10489573;28;20548;-82
2022/10/23 21:52:02;;;;;;;76.87;35.73;;;9.90;99.90;;;;;;10484800;28;20245;-81
2022/10/23 21:57:23;;;;;;;64.00;30.50;;;9.90;99.90;;;;;;10470644;28;20359;-85
2022/10/23 22:02:44;;;;;;;46.23;27.00;;;10.00;99.90;;;;;;10483641;28;20215;-81
2022/10/23 22:08:06;;;;;;;40.20;24.10;;;10.10;99.90;;;;;;10498520;28;20205;-80
2022/10/23 22:13:27;;;;;;;34.47;22.27;;;10.10;99.90;;;;;;10513990;28;20209;-82
2022/10/23 22:18:48;;;;;;;31.47;19.97;;;10.10;99.90;;;;;;10514521;28;20215;-82
2022/10/23 22:24:10;;;;;;;28.97;19.20;;;10.10;99.90;;;;;;10529101;28;20246;-81
2022/10/23 22:29:31;;;;;;;28.43;19.43;;;10.10;99.90;;;;;;10509927;28;20395;-84
2022/10/23 22:34:52;;;;;;;33.00;20.70;;;10.10;99.90;;;;;;10510338;28;20257;-81
2022/10/23 22:40:13;;;;;;;26.40;19.03;;;10.10;99.90;;;;;;10509828;28;20244;-81
2022/10/23 22:45:34;;;;;;;29.33;19.77;;;10.20;99.90;;;;;;10509759;28;20303;-80
2022/10/23 22:50:56;;;;;;;28.70;19.53;;;10.20;99.90;;;;;;10529497;28;20222;-84
2022/10/23 22:56:22;;;;;;;26.90;18.07;;;10.20;99.90;;;;;;10522924;28;20249;-81
2022/10/23 23:01:46;;;;;;;25.93;19.40;;;10.10;99.90;;;;;;10540201;28;20293;-84
2022/10/23 23:07:09;;;;;;;24.90;19.53;;;10.10;99.90;;;;;;10522929;28;20233;-85
2022/10/23 23:12:30;;;;;;;29.20;20.57;;;10.10;99.90;;;;;;10522552;28;20286;-81
2022/10/23 23:17:52;;;;;;;29.27;19.87;;;10.10;99.90;;;;;;10494126;28;20213;-81
2022/10/23 23:23:13;;;;;;;20.57;16.93;;;10.00;99.90;;;;;;10508277;28;20218;-81
2022/10/23 23:28:34;;;;;;;21.43;17.93;;;10.00;99.90;;;;;;10521672;28;20296;-81
2022/10/23 23:33:56;;;;;;;31.23;22.90;;;9.90;99.90;;;;;;10536541;28;20292;-81
2022/10/23 23:39:17;;;;;;;21.43;16.53;;;10.00;99.90;;;;;;10535338;28;20201;-80
2022/10/23 23:44:38;;;;;;;28.20;19.97;;;10.00;99.90;;;;;;10507282;28;20266;-81
2022/10/23 23:50:02;;;;;;;19.60;15.03;;;10.00;99.90;;;;;;10536415;28;20190;-81
2022/10/23 23:55:23;;;;;;;18.70;14.00;;;10.10;99.90;;;;;;10506513;28;20259;-84
